Time;durP1;ratioP1;P1;durP2;ratioP2;P2;SDS_P1;SDS_P2;PMS_P1;PMS_P2;Temp;Humidity;BMP_temperature;BMP_pressure;BME280_temperature;BME280_humidity;BME280_pressure;Samples;Min_cycle;Max_cycle;Signal;HPM_P1;HPM_P2
2021/07/25 00:01:43;;;;;;;12.63;9.80;;;;;;;17.94;62.86;97428.77;127058;1092;62645;-71
2021/07/25 00:04:10;;;;;;;15.13;9.57;;;;;;;17.93;62.83;97437.66;126996;1092;62622;-70
2021/07/25 00:06:37;;;;;;;12.00;8.00;;;;;;;17.90;62.71;97438.65;127056;1092;62626;-72
2021/07/25 00:09:04;;;;;;;9.43;7.30;;;;;;;17.83;62.72;97439.84;127073;1092;62639;-70
2021/07/25 00:11:31;;;;;;;13.87;7.83;;;;;;;17.76;62.53;97448.64;126990;1092;62760;-70
2021/07/25 00:14:02;;;;;;;14.70;9.70;;;;;;;17.66;62.50;97442.38;126971;1092;62722;-71
2021/07/25 00:16:31;;;;;;;13.20;9.80;;;;;;;17.60;63.02;97441.55;127057;1092;62553;-71
2021/07/25 00:18:58;;;;;;;14.17;9.03;;;;;;;17.50;63.37;97438.08;127047;1092;62588;-72
2021/07/25 00:21:25;;;;;;;14.13;10.43;;;;;;;17.43;63.34;97437.73;127052;1092;62607;-69
2021/07/25 00:23:53;;;;;;;15.25;10.90;;;;;;;17.37;63.59;97434.83;126910;1092;62626;-70
2021/07/25 00:26:25;;;;;;;15.10;9.57;;;;;;;17.32;63.76;97426.36;126892;1092;62620;-70
2021/07/25 00:28:52;;;;;;;12.60;9.50;;;;;;;17.29;63.94;97433.70;126978;1092;62614;-70
2021/07/25 00:31:19;;;;;;;12.47;9.13;;;;;;;17.28;63.80;97431.39;126854;1092;62615;-71
2021/07/25 00:33:48;;;;;;;13.17;9.57;;;;;;;17.30;63.88;97428.88;126885;1092;62620;-71
2021/07/25 00:36:16;;;;;;;14.67;9.63;;;;;;;17.31;63.85;97424.81;127038;1092;62616;-71
2021/07/25 00:38:43;;;;;;;14.07;9.07;;;;;;;17.32;63.92;97429.16;127012;1092;62626;-70
2021/07/25 00:41:12;;;;;;;12.87;9.30;;;;;;;17.32;63.76;97421.53;127066;1092;62568;-70
2021/07/25 00:43:39;;;;;;;14.75;9.10;;;;;;;17.31;63.79;97417.19;127028;1092;62626;-70
2021/07/25 00:46:06;;;;;;;13.57;9.80;;;;;;;17.32;63.81;97420.76;126978;1092;63099;-70
2021/07/25 00:48:34;;;;;;;12.00;9.33;;;;;;;17.31;64.06;97419.98;126947;1092;62636;-70
2021/07/25 00:51:01;;;;;;;14.00;9.53;;;;;;;17.32;64.16;97420.76;126948;1092;62623;-71
2021/07/25 00:53:28;;;;;;;15.67;9.87;;;;;;;17.32;64.49;97415.16;127019;1092;62874;-72
2021/07/25 00:55:55;;;;;;;11.80;9.33;;;;;;;17.27;64.39;97413.83;127047;1090;62565;-71
2021/07/25 00:58:22;;;;;;;13.23;8.77;;;;;;;17.25;64.55;97415.58;126935;1092;62716;-70
2021/07/25 01:00:49;;;;;;;12.43;9.07;;;;;;;17.20;64.70;97411.41;127023;1092;62759;-71
2021/07/25 01:03:56;;;;;;;14.47;8.93;;;;;;;17.12;64.65;97405.45;126921;1092;62680;-70
2021/07/25 01:06:48;;;;;;;11.47;8.50;;;;;;;17.04;64.57;97401.50;126976;1092;62559;-72
2021/07/25 01:09:36;;;;;;;12.63;8.53;;;;;;;16.96;64.56;97391.20;127090;1092;62603;-71
2021/07/25 01:12:05;;;;;;;12.63;8.33;;;;;;;16.91;64.89;97398.25;127104;1092;62719;-70
2021/07/25 01:14:34;;;;;;;15.70;8.83;;;;;;;16.90;64.61;97388.33;127073;1092;62617;-72
2021/07/25 01:17:23;;;;;;;10.83;8.70;;;;;;;16.89;64.88;97397.97;127013;1092;63064;-70
2021/07/25 01:19:50;;;;;;;13.93;9.20;;;;;;;16.85;65.10;97386.95;127043;1092;63076;-71
2021/07/25 01:22:17;;;;;;;13.57;9.70;;;;;;;16.88;65.10;97385.24;126972;1092;62546;-72
2021/07/25 01:24:44;;;;;;;11.80;8.67;;;;;;;16.88;64.93;97393.63;126979;1092;62604;-68
2021/07/25 01:27:17;;;;;;;11.57;8.97;;;;;;;16.85;65.01;97394.58;126969;1092;62624;-70
2021/07/25 01:29:44;;;;;;;13.13;8.77;;;;;;;16.83;64.88;97402.68;127006;1092;62681;-77
2021/07/25 01:32:11;;;;;;;12.97;8.97;;;;;;;16.82;65.30;97415.89;126990;1092;63076;-70
2021/07/25 01:34:38;;;;;;;10.90;8.83;;;;;;;16.80;65.43;97404.42;127001;1092;62636;-76
2021/07/25 01:37:06;;;;;;;11.50;8.77;;;;;;;16.81;65.25;97405.19;126984;1092;62769;-70
2021/07/25 01:39:33;;;;;;;13.73;9.47;;;;;;;16.78;65.30;97403.37;126902;1092;62758;-70
2021/07/25 01:42:00;;;;;;;12.07;9.33;;;;;;;16.75;65.77;97401.54;126961;1092;62697;-70
2021/07/25 01:44:27;;;;;;;13.63;8.90;;;;;;;16.74;65.97;97400.77;127080;1091;62659;-70
2021/07/25 01:46:54;;;;;;;11.90;9.07;;;;;;;16.70;65.73;97410.61;127054;1092;62630;-71
2021/07/25 01:49:22;;;;;;;11.30;8.83;;;;;;;16.65;66.02;97411.23;126930;1092;62635;-70
2021/07/25 01:51:50;;;;;;;10.77;8.77;;;;;;;16.58;66.05;97415.97;127069;1092;62786;-70
2021/07/25 01:54:17;;;;;;;12.73;8.60;;;;;;;16.54;66.25;97415.39;127145;1092;62591;-70
2021/07/25 01:56:44;;;;;;;12.33;9.20;;;;;;;16.54;66.23;97420.98;127024;1092;62591;-70
2021/07/25 01:59:11;;;;;;;16.23;10.20;;;;;;;16.52;66.28;97412.30;127021;1092;62623;-73
2021/07/25 02:01:38;;;;;;;14.33;9.57;;;;;;;16.52;66.39;97412.30;126974;1092;62622;-74
2021/07/25 02:04:05;;;;;;;13.00;9.37;;;;;;;16.49;66.55;97421.63;126991;1092;62769;-71
2021/07/25 02:06:35;;;;;;;12.43;8.87;;;;;;;16.47;66.50;97421.34;127076;1092;62616;-71
2021/07/25 02:09:02;;;;;;;13.33;9.60;;;;;;;16.44;66.74;97427.13;127195;1091;62614;-70
2021/07/25 02:11:29;;;;;;;12.00;9.40;;;;;;;16.43;66.95;97420.77;127027;1092;63150;-70
2021/07/25 02:13:56;;;;;;;10.73;8.87;;;;;;;16.40;66.79;97432.91;127038;1092;62735;-70
2021/07/25 02:16:23;;;;;;;11.77;9.47;;;;;;;16.37;66.82;97433.88;126957;1092;62639;-70
2021/07/25 02:18:51;;;;;;;13.70;9.67;;;;;;;16.36;67.00;97429.53;127001;1092;62652;-70
2021/07/25 02:21:18;;;;;;;13.73;9.63;;;;;;;16.35;67.15;97422.41;126949;1092;63045;-70
2021/07/25 02:23:45;;;;;;;14.40;9.70;;;;;;;16.33;66.84;97428.44;126979;1092;62629;-70
2021/07/25 02:26:12;;;;;;;12.97;9.83;;;;;;;16.33;67.16;97428.44;126937;1092;62794;-70
2021/07/25 02:28:39;;;;;;;12.37;9.33;;;;;;;16.33;67.09;97422.09;126959;1092;62720;-70
2021/07/25 02:31:06;;;;;;;14.87;10.73;;;;;;;16.31;67.37;97421.80;126950;1090;62623;-70
2021/07/25 02:33:33;;;;;;;13.90;11.00;;;;;;;16.30;67.48;97431.43;126885;1092;62696;-70
2021/07/25 02:36:00;;;;;;;14.67;10.83;;;;;;;16.28;67.70;97431.14;126948;1092;62600;-69
2021/07/25 02:38:45;;;;;;;13.67;10.70;;;;;;;16.25;67.78;97432.88;126910;1092;62585;-71
2021/07/25 02:41:12;;;;;;;14.93;11.20;;;;;;;16.21;67.49;97423.14;126940;1092;62677;-71
2021/07/25 02:43:39;;;;;;;13.63;10.43;;;;;;;16.20;67.88;97429.98;126896;1092;62690;-71
2021/07/25 02:46:06;;;;;;;13.67;10.27;;;;;;;16.19;67.84;97429.20;126926;1092;62565;-70
2021/07/25 02:48:33;;;;;;;14.97;9.60;;;;;;;16.17;67.75;97430.94;127010;1092;62616;-71
2021/07/25 02:51:00;;;;;;;11.93;9.60;;;;;;;16.14;67.81;97431.88;126936;1092;62636;-70
2021/07/25 02:53:27;;;;;;;12.80;10.20;;;;;;;16.12;67.89;97431.58;126967;1092;62645;-71
2021/07/25 02:55:54;;;;;;;12.93;10.63;;;;;;;16.10;67.63;97425.70;126979;1092;62591;-70
2021/07/25 02:58:21;;;;;;;12.43;9.80;;;;;;;16.07;68.11;97424.64;127022;1092;62609;-72
2021/07/25 03:00:49;;;;;;;14.43;9.87;;;;;;;16.06;67.88;97439.86;126965;1092;62871;-70
2021/07/25 03:03:16;;;;;;;11.90;9.77;;;;;;;16.07;68.02;97437.83;127002;1092;62722;-71
2021/07/25 03:05:43;;;;;;;16.70;9.80;;;;;;;16.09;67.92;97440.92;126979;1092;62729;-71
2021/07/25 03:08:10;;;;;;;13.40;9.53;;;;;;;16.07;68.10;97437.83;127024;1092;62616;-71
2021/07/25 03:10:39;;;;;;;14.05;10.00;;;;;;;16.09;68.02;97443.71;126978;1092;62647;-70
2021/07/25 03:13:06;;;;;;;17.23;10.20;;;;;;;16.15;67.96;97439.00;127016;1092;62686;-71
2021/07/25 03:15:33;;;;;;;13.07;10.43;;;;;;;16.25;67.91;97446.84;127016;1092;62672;-70
2021/07/25 03:18:00;;;;;;;13.67;10.00;;;;;;;16.36;68.16;97449.09;126905;1092;62831;-69
2021/07/25 03:20:27;;;;;;;12.57;9.93;;;;;;;16.49;67.69;97446.78;126870;1092;62655;-69
2021/07/25 03:22:55;;;;;;;12.10;9.17;;;;;;;16.60;67.15;97452.59;126892;1092;62703;-69
2021/07/25 03:25:22;;;;;;;13.50;9.37;;;;;;;16.76;67.20;97448.59;126948;1092;62617;-70
2021/07/25 03:27:49;;;;;;;14.90;10.87;;;;;;;17.01;66.98;97452.81;126882;1092;62639;-70
2021/07/25 03:30:16;;;;;;;11.63;9.90;;;;;;;17.18;66.59;97456.66;126891;1092;62767;-70
2021/07/25 03:33:02;;;;;;;15.43;9.87;;;;;;;17.37;66.29;97462.05;126913;1092;62629;-70
2021/07/25 03:35:29;;;;;;;13.70;9.83;;;;;;;17.55;65.74;97461.81;126947;1092;62614;-71
2021/07/25 03:37:56;;;;;;;12.17;9.10;;;;;;;17.62;65.52;97461.42;126864;1092;62980;-70
2021/07/25 03:40:28;;;;;;;14.40;9.80;;;;;;;17.81;65.17;97462.74;126887;1092;62633;-70
2021/07/25 03:42:56;;;;;;;13.00;8.73;;;;;;;17.99;64.36;97472.14;127029;1092;62791;-71
2021/07/25 03:45:23;;;;;;;12.70;9.13;;;;;;;18.06;64.31;97466.11;127063;1092;62690;-71
2021/07/25 03:47:51;;;;;;;13.43;9.47;;;;;;;18.11;64.08;97468.20;127030;1092;62689;-72
2021/07/25 03:50:18;;;;;;;11.90;9.63;;;;;;;18.20;63.78;97472.92;127083;1092;62713;-74
2021/07/25 03:52:45;;;;;;;17.03;9.17;;;;;;;18.46;63.56;97472.96;126945;1092;62702;-70
2021/07/25 03:55:12;;;;;;;13.07;8.70;;;;;;;18.83;62.65;97473.89;126990;1092;62748;-71
2021/07/25 03:57:39;;;;;;;13.87;9.40;;;;;;;19.01;61.90;97487.59;126996;1092;62703;-70
2021/07/25 04:00:07;;;;;;;16.70;8.63;;;;;;;19.09;61.40;97487.17;127020;1092;62673;-70
2021/07/25 04:02:34;;;;;;;11.83;7.97;;;;;;;19.27;60.89;97486.81;126998;1092;62678;-70
2021/07/25 04:05:01;;;;;;;11.17;8.40;;;;;;;19.57;60.06;97476.88;126978;1092;62572;-71
2021/07/25 04:07:28;;;;;;;12.93;8.40;;;;;;;19.83;59.25;97481.63;127031;1092;62602;-71
2021/07/25 04:09:55;;;;;;;11.33;8.60;;;;;;;20.37;57.60;97484.45;126998;1092;62675;-71
2021/07/25 04:12:22;;;;;;;12.13;8.83;;;;;;;21.07;55.89;97480.83;126990;1092;62550;-71
2021/07/25 04:14:50;;;;;;;13.30;9.50;;;;;;;21.64;54.15;97485.22;126992;1092;62581;-71
2021/07/25 04:17:17;;;;;;;15.37;8.80;;;;;;;21.70;53.29;97491.60;127033;1092;62625;-71
2021/07/25 04:19:44;;;;;;;14.07;9.17;;;;;;;21.65;53.39;97492.38;126992;1092;62723;-72
2021/07/25 04:22:36;;;;;;;12.27;8.80;;;;;;;21.60;53.64;97487.53;127003;1092;62696;-71
2021/07/25 04:25:22;;;;;;;13.40;9.20;;;;;;;21.94;53.13;97491.07;127042;1092;62566;-72
2021/07/25 04:27:49;;;;;;;12.83;9.03;;;;;;;22.86;51.44;97477.67;126977;1092;62697;-72
2021/07/25 04:30:17;;;;;;;14.20;9.47;;;;;;;23.80;48.95;97489.54;126994;1092;62635;-72
2021/07/25 04:32:45;;;;;;;13.40;9.17;;;;;;;24.61;46.79;97498.19;126966;1092;62677;-72
2021/07/25 04:35:13;;;;;;;12.27;9.20;;;;;;;24.93;46.70;97496.19;127077;1092;62617;-72
2021/07/25 04:37:48;;;;;;;13.33;9.73;;;;;;;25.06;46.73;97497.59;127004;1092;62554;-72
2021/07/25 04:40:16;;;;;;;12.73;9.53;;;;;;;25.62;45.70;97497.48;126999;1092;62618;-74
2021/07/25 04:42:55;;;;;;;13.63;10.07;;;;;;;26.36;44.11;97501.33;126964;1092;62604;-73
2021/07/25 04:45:48;;;;;;;14.07;10.00;;;;;;;27.18;41.78;97495.75;126981;1092;62779;-73
2021/07/25 04:48:30;;;;;;;11.80;9.43;;;;;;;27.80;40.67;97490.09;127030;1092;62665;-73
2021/07/25 04:51:04;;;;;;;15.70;9.33;;;;;;;28.36;39.62;97494.31;127057;1092;62568;-72
2021/07/25 04:53:41;;;;;;;13.30;9.50;;;;;;;28.62;39.13;97498.27;127064;1092;62703;-72
2021/07/25 04:56:10;;;;;;;11.85;9.65;;;;;;;28.55;38.96;97494.83;127039;1092;63060;-72
2021/07/25 04:58:55;;;;;;;13.90;9.90;;;;;;;28.47;39.12;97498.94;127056;1092;62604;-72
2021/07/25 05:01:28;;;;;;;14.57;8.90;;;;;;;28.93;38.07;97502.80;127012;1092;62671;-72
2021/07/25 05:03:55;;;;;;;13.50;9.40;;;;;;;29.17;37.76;97496.60;126996;1092;62632;-72
2021/07/25 05:06:23;;;;;;;15.13;10.07;;;;;;;29.00;37.57;97504.91;126984;1092;62623;-71
2021/07/25 05:08:50;;;;;;;14.63;9.40;;;;;;;28.64;37.94;97490.67;127018;1092;62636;-69
2021/07/25 05:11:18;;;;;;;13.03;10.07;;;;;;;28.39;38.82;97496.06;126940;1092;62719;-71
2021/07/25 05:13:47;;;;;;;12.60;9.07;;;;;;;28.10;39.00;97494.50;127020;1092;62679;-72
2021/07/25 05:16:22;;;;;;;17.95;10.40;;;;;;;27.94;39.38;97494.39;126996;1092;62677;-73
2021/07/25 05:18:59;;;;;;;16.00;10.07;;;;;;;27.64;39.90;97499.82;126991;1092;62647;-73
2021/07/25 05:21:36;;;;;;;12.10;9.97;;;;;;;27.34;40.85;97501.05;126963;1092;62626;-72
2021/07/25 05:24:03;;;;;;;12.03;9.57;;;;;;;27.25;41.18;97498.66;127119;1092;62604;-72
2021/07/25 05:29:35;;;;;;;12.55;10.00;;;;;;;27.04;41.28;97500.71;127159;1092;63077;-76
2021/07/25 05:32:02;;;;;;;16.47;10.23;;;;;;;27.06;41.01;97503.77;126951;1090;62589;-82
2021/07/25 05:34:29;;;;;;;15.77;10.20;;;;;;;27.21;40.33;97503.93;126964;1090;62639;-72
2021/07/25 05:36:56;;;;;;;15.73;10.93;;;;;;;27.38;40.51;97500.70;127090;1092;62655;-72
2021/07/25 05:39:23;;;;;;;14.27;10.83;;;;;;;27.86;39.41;97499.27;126981;1092;62642;-71
2021/07/25 05:41:50;;;;;;;12.90;10.60;;;;;;;28.78;38.18;97499.86;127007;1092;62601;-71
2021/07/25 05:44:17;;;;;;;13.93;10.10;;;;;;;30.02;35.46;97506.05;127033;1092;62565;-73
2021/07/25 05:46:44;;;;;;;14.57;10.87;;;;;;;30.92;33.47;97501.50;126955;1092;62694;-73
2021/07/25 05:49:11;;;;;;;14.70;10.23;;;;;;;31.55;31.65;97487.05;126972;1092;62719;-74
2021/07/25 05:51:39;;;;;;;14.85;11.05;;;;;;;31.85;30.85;97493.92;127052;1092;62605;-71
2021/07/25 05:54:06;;;;;;;13.57;10.00;;;;;;;32.08;30.84;97494.47;127032;1092;62616;-77
2021/07/25 05:56:33;;;;;;;14.70;10.70;;;;;;;32.47;30.63;97492.01;126963;1092;62626;-77
2021/07/25 05:59:00;;;;;;;16.23;11.33;;;;;;;32.35;30.75;97491.02;126974;1092;62690;-77
2021/07/25 06:01:27;;;;;;;18.50;11.40;;;;;;;31.96;31.13;97496.31;126980;1092;62616;-72
2021/07/25 06:03:54;;;;;;;14.77;11.20;;;;;;;31.76;31.85;97494.55;127029;1092;62639;-72
2021/07/25 06:06:21;;;;;;;17.75;12.40;;;;;;;31.73;32.17;97495.72;126984;1092;62576;-73
2021/07/25 06:08:48;;;;;;;16.97;11.30;;;;;;;32.00;32.16;97496.66;127070;1092;63080;-71
2021/07/25 06:11:22;;;;;;;15.63;11.60;;;;;;;32.71;30.71;97499.78;127037;1092;62687;-71
2021/07/25 06:13:50;;;;;;;17.77;12.37;;;;;;;33.75;29.55;97499.53;127009;1092;62719;-75
2021/07/25 06:16:17;;;;;;;17.55;11.95;;;;;;;34.48;28.57;97498.74;127028;1092;62684;-71
2021/07/25 06:19:03;;;;;;;18.70;14.40;;;;;;;34.97;27.15;97494.51;127039;1092;62626;-71
2021/07/25 06:21:30;;;;;;;16.57;13.33;;;;;;;35.81;26.50;97494.77;126989;1092;62658;-71
2021/07/25 06:23:58;;;;;;;15.73;12.87;;;;;;;36.51;25.46;97492.44;127057;1092;62643;-72
2021/07/25 06:26:25;;;;;;;17.25;12.75;;;;;;;37.32;24.86;97480.50;126999;1092;62768;-72
2021/07/25 06:28:52;;;;;;;15.00;11.60;;;;;;;37.95;23.62;97489.52;126990;1092;62697;-72
2021/07/25 06:31:19;;;;;;;19.77;12.40;;;;;;;38.47;22.86;97486.20;127011;1092;62616;-72
2021/07/25 06:33:47;;;;;;;14.73;10.60;;;;;;;38.82;22.23;97480.33;127073;1092;62562;-72
2021/07/25 06:36:14;;;;;;;16.47;10.80;;;;;;;39.16;21.91;97490.27;126932;1092;62629;-72
2021/07/25 06:38:41;;;;;;;12.30;9.80;;;;;;;39.65;21.53;97487.19;127029;1092;62584;-72
2021/07/25 06:41:09;;;;;;;12.18;10.33;;;;;;;40.02;20.95;97483.39;127034;1092;62683;-72
2021/07/25 06:43:36;;;;;;;16.90;10.78;;;;;;;40.37;20.14;97489.61;127042;1092;62623;-72
2021/07/25 06:46:03;;;;;;;14.10;10.43;;;;;;;40.86;20.49;97492.15;126942;1092;62620;-71
2021/07/25 06:48:33;;;;;;;13.15;8.75;;;;;;;41.55;19.82;97498.44;126974;1092;62613;-72
2021/07/25 06:51:01;;;;;;;12.28;9.48;;;;;;;42.13;19.37;97493.88;126975;1092;62681;-71
2021/07/25 06:53:31;;;;;;;11.10;9.10;;;;;;;42.86;18.77;97483.92;127087;1092;62616;-72
2021/07/25 06:56:01;;;;;;;13.55;9.25;;;;;;;43.34;17.88;97491.80;127037;1092;63025;-72
2021/07/25 06:58:28;;;;;;;17.70;9.70;;;;;;;43.64;17.76;97488.58;126998;1092;62617;-73
2021/07/25 07:00:55;;;;;;;14.13;8.53;;;;;;;43.88;17.78;97498.27;126991;1092;62625;-72
2021/07/25 07:03:22;;;;;;;21.83;8.97;;;;;;;44.17;17.50;97484.75;126968;1092;62623;-73
2021/07/25 07:05:49;;;;;;;15.83;8.88;;;;;;;44.54;17.03;97492.70;126959;1092;62679;-72
2021/07/25 07:08:17;;;;;;;14.35;8.15;;;;;;;44.95;17.02;97479.49;126992;1092;62657;-73
2021/07/25 07:11:03;;;;;;;10.63;8.17;;;;;;;45.34;16.43;97481.51;127009;1092;62677;-72
2021/07/25 07:13:30;;;;;;;13.20;8.60;;;;;;;45.52;16.13;97479.16;126991;1092;63099;-73
2021/07/25 07:15:57;;;;;;;16.63;8.70;;;;;;;45.66;15.98;97470.84;126937;1092;62665;-73
2021/07/25 07:18:24;;;;;;;11.60;7.68;;;;;;;45.89;16.07;97475.17;126976;1089;62669;-73
2021/07/25 07:20:52;;;;;;;11.10;7.40;;;;;;;46.04;15.43;97464.66;126987;1092;62609;-72
2021/07/25 07:23:23;;;;;;;9.80;7.40;;;;;;;45.92;15.67;97473.05;126987;1092;62620;-73
2021/07/25 07:25:51;;;;;;;11.05;7.50;;;;;;;46.19;16.01;97472.40;127011;1092;62662;-72
2021/07/25 07:28:20;;;;;;;13.97;7.87;;;;;;;46.76;15.22;97464.41;126946;1092;62628;-72
2021/07/25 07:30:47;;;;;;;10.47;7.07;;;;;;;47.20;14.67;97467.73;126947;1092;62632;-72
2021/07/25 07:33:17;;;;;;;11.90;7.27;;;;;;;47.52;14.57;97474.38;126929;1092;62689;-73
2021/07/25 07:35:44;;;;;;;10.25;6.65;;;;;;;48.04;13.76;97470.36;126986;1092;62585;-72
2021/07/25 07:38:11;;;;;;;9.40;6.33;;;;;;;48.35;13.54;97472.48;126918;1092;62639;-72
2021/07/25 07:40:39;;;;;;;9.83;6.40;;;;;;;48.50;13.74;97470.56;126973;1092;62688;-73
2021/07/25 07:43:07;;;;;;;7.43;5.70;;;;;;;48.44;12.87;97474.11;127033;1092;62611;-73
2021/07/25 07:45:35;;;;;;;9.93;6.03;;;;;;;48.41;13.62;97457.91;127004;1092;62671;-73
2021/07/25 07:48:02;;;;;;;7.67;6.00;;;;;;;48.33;13.45;97469.51;127058;1092;62543;-71
2021/07/25 07:50:29;;;;;;;7.98;5.83;;;;;;;48.28;13.17;97473.80;127030;1092;62626;-72
2021/07/25 07:52:57;;;;;;;8.83;6.17;;;;;;;48.00;12.98;97465.16;126967;1092;62636;-72
2021/07/25 07:55:25;;;;;;;8.75;6.43;;;;;;;47.98;13.31;97465.13;126986;1090;62620;-72
2021/07/25 07:57:52;;;;;;;9.47;6.60;;;;;;;48.08;13.58;97461.64;126951;1092;62593;-74
2021/07/25 08:00:19;;;;;;;8.35;5.80;;;;;;;47.86;13.55;97459.00;126994;1092;62675;-72
2021/07/25 08:02:46;;;;;;;8.30;6.17;;;;;;;48.16;13.61;97466.94;126878;1092;62648;-72
2021/07/25 08:05:13;;;;;;;9.97;5.77;;;;;;;48.27;13.48;97462.77;126957;1092;62620;-72
2021/07/25 08:07:41;;;;;;;12.70;6.17;;;;;;;48.14;13.25;97459.58;126985;1092;62634;-71
2021/07/25 08:10:08;;;;;;;8.93;6.30;;;;;;;47.86;13.38;97464.86;127025;1092;62698;-72
2021/07/25 08:12:36;;;;;;;8.05;5.98;;;;;;;47.50;13.76;97459.67;126960;1092;62651;-71
2021/07/25 08:15:04;;;;;;;8.80;6.45;;;;;;;47.30;14.02;97453.32;126947;1092;62616;-73
2021/07/25 08:17:31;;;;;;;12.35;5.98;;;;;;;47.30;13.93;97447.46;126934;1092;62632;-72
2021/07/25 08:19:58;;;;;;;8.47;5.90;;;;;;;47.30;14.16;97447.46;126992;1092;62668;-71
2021/07/25 08:22:26;;;;;;;9.03;5.73;;;;;;;47.11;14.06;97442.59;127016;1092;62562;-72
2021/07/25 08:24:53;;;;;;;8.30;5.80;;;;;;;47.00;14.28;97440.84;127000;1092;62617;-72
2021/07/25 08:27:20;;;;;;;7.53;5.48;;;;;;;47.09;14.25;97440.36;127042;1092;62638;-72
2021/07/25 08:29:47;;;;;;;9.53;5.70;;;;;;;46.92;14.17;97436.30;126995;1092;62677;-72
2021/07/25 08:32:14;;;;;;;9.05;6.00;;;;;;;46.89;14.38;97434.77;127022;1092;62684;-72
2021/07/25 08:34:41;;;;;;;7.03;5.53;;;;;;;46.86;14.60;97426.59;127014;1092;62623;-72
2021/07/25 08:37:08;;;;;;;8.57;5.73;;;;;;;46.78;14.13;97435.20;127002;1092;62639;-72
2021/07/25 08:39:36;;;;;;;9.10;6.20;;;;;;;46.29;14.48;97437.55;127052;1092;62633;-71
2021/07/25 08:42:04;;;;;;;7.30;5.97;;;;;;;45.93;15.14;97433.58;126967;1092;62678;-71
2021/07/25 08:44:51;;;;;;;7.43;5.85;;;;;;;45.60;14.92;97429.68;126984;1092;62627;-71
2021/07/25 08:47:19;;;;;;;7.47;5.83;;;;;;;45.17;15.81;97422.52;127005;1092;62589;-74
2021/07/25 08:49:56;;;;;;;7.83;5.80;;;;;;;44.93;15.71;97421.02;127091;1092;62568;-72
2021/07/25 08:52:35;;;;;;;8.95;6.28;;;;;;;44.71;15.79;97420.98;127041;1092;62616;-73
2021/07/25 08:55:08;;;;;;;8.15;5.90;;;;;;;44.64;16.32;97419.30;126982;1092;62617;-72
2021/07/25 08:57:37;;;;;;;10.57;6.20;;;;;;;44.60;16.63;97414.07;127097;1092;63018;-73
2021/07/25 09:00:06;;;;;;;8.20;6.20;;;;;;;44.42;16.36;97405.41;127151;1092;62568;-74
2021/07/25 09:02:33;;;;;;;8.35;6.30;;;;;;;44.40;16.45;97402.43;126995;1092;62633;-72
2021/07/25 09:05:01;;;;;;;8.58;6.15;;;;;;;44.38;16.79;97404.54;127041;1092;62634;-72
2021/07/25 09:07:29;;;;;;;9.50;5.93;;;;;;;44.09;16.57;97408.63;127026;1092;62631;-73
2021/07/25 09:10:14;;;;;;;10.73;6.07;;;;;;;43.60;17.00;97404.62;126960;1092;62697;-74
2021/07/25 09:12:41;;;;;;;8.70;5.85;;;;;;;43.24;16.87;97412.69;127017;1092;62607;-72
2021/07/25 09:15:11;;;;;;;9.30;6.00;;;;;;;42.62;17.64;97394.17;127029;1092;62953;-73
2021/07/25 09:17:38;;;;;;;8.80;6.33;;;;;;;41.71;18.60;97398.91;126977;1092;62661;-72
2021/07/25 09:20:08;;;;;;;7.55;5.55;;;;;;;40.95;18.77;97401.16;127130;1092;62632;-71
2021/07/25 09:22:36;;;;;;;8.90;6.15;;;;;;;39.61;20.28;97405.86;126997;1092;62769;-73
2021/07/25 09:25:04;;;;;;;9.10;6.37;;;;;;;38.39;21.18;97398.94;127029;1092;62617;-78
2021/07/25 09:27:31;;;;;;;7.93;6.15;;;;;;;37.09;23.23;97403.25;127036;1090;62639;-79
2021/07/25 09:29:58;;;;;;;9.98;6.15;;;;;;;36.45;24.29;97396.89;127076;1092;62620;-73
2021/07/25 09:32:25;;;;;;;9.93;6.20;;;;;;;35.73;25.08;97392.04;127016;1092;62591;-74
2021/07/25 09:34:52;;;;;;;9.88;6.88;;;;;;;35.25;24.87;97400.87;127051;1092;62754;-71
2021/07/25 09:37:21;;;;;;;9.95;6.98;;;;;;;34.45;26.21;97396.45;127001;1092;62585;-72
2021/07/25 09:39:49;;;;;;;11.65;7.30;;;;;;;34.01;26.95;97393.84;127047;1092;62902;-73
2021/07/25 09:42:16;;;;;;;10.10;7.60;;;;;;;33.48;28.35;97402.00;127002;1092;62681;-72
2021/07/25 09:44:51;;;;;;;9.93;7.18;;;;;;;33.21;28.37;97406.98;127043;1092;62687;-71
2021/07/25 09:47:34;;;;;;;10.13;7.15;;;;;;;32.84;29.47;97392.59;127049;1092;62703;-71
2021/07/25 09:50:03;;;;;;;11.10;7.45;;;;;;;32.36;30.51;97397.98;127087;1092;62618;-71
2021/07/25 09:52:34;;;;;;;10.35;6.90;;;;;;;31.91;31.13;97399.95;127091;1092;62605;-79
2021/07/25 09:55:03;;;;;;;12.53;7.63;;;;;;;31.71;32.02;97401.83;126970;1092;63025;-79
2021/07/25 09:57:30;;;;;;;;;;;;;;;31.44;32.60;97407.41;127094;1092;62632;-72
2021/07/25 10:00:07;;;;;;;13.10;7.77;;;;;;;31.18;32.14;97403.02;127026;1092;62678;-72
2021/07/25 10:02:38;;;;;;;15.35;8.15;;;;;;;30.96;32.36;97396.08;126982;1092;62664;-72
2021/07/25 10:05:09;;;;;;;13.53;8.60;;;;;;;30.96;32.46;97390.36;127075;1092;62617;-71
2021/07/25 10:07:36;;;;;;;11.00;7.60;;;;;;;30.89;32.81;97388.32;127022;1092;62632;-71
2021/07/25 10:10:05;;;;;;;10.15;7.90;;;;;;;30.82;32.56;97391.97;126991;1092;62565;-72
2021/07/25 10:12:32;;;;;;;10.70;7.95;;;;;;;30.66;32.38;97390.52;126977;1092;62697;-72
2021/07/25 10:15:00;;;;;;;11.67;8.23;;;;;;;30.58;31.68;97389.78;127082;1092;62588;-72
2021/07/25 10:17:29;;;;;;;12.37;7.90;;;;;;;30.46;33.14;97397.25;126979;1092;62641;-72
2021/07/25 10:19:58;;;;;;;9.67;8.13;;;;;;;30.37;32.83;97385.11;127007;1092;63009;-72
2021/07/25 10:22:31;;;;;;;10.33;8.20;;;;;;;30.32;33.33;97383.20;127000;1092;62622;-71
2021/07/25 10:24:59;;;;;;;10.75;7.80;;;;;;;30.16;33.39;97384.59;127020;1092;62789;-71
2021/07/25 10:27:27;;;;;;;11.10;8.77;;;;;;;30.04;33.90;97392.07;126994;1092;62646;-71
2021/07/25 10:29:55;;;;;;;10.87;8.00;;;;;;;29.93;34.77;97392.44;127036;1092;62612;-72
2021/07/25 10:32:43;;;;;;;13.57;8.43;;;;;;;29.71;34.15;97386.20;126962;1092;62643;-72
2021/07/25 10:35:14;;;;;;;11.47;8.20;;;;;;;29.63;34.69;97388.31;127027;1092;62683;-71
2021/07/25 10:37:41;;;;;;;10.90;8.05;;;;;;;29.45;34.90;97393.08;127021;1092;62715;-71
2021/07/25 10:40:09;;;;;;;10.85;8.35;;;;;;;29.30;35.23;97383.72;127081;1091;62623;-72
2021/07/25 10:42:49;;;;;;;8.53;7.60;;;;;;;29.11;35.43;97390.55;126975;1092;62588;-71
2021/07/25 10:45:17;;;;;;;10.50;7.97;;;;;;;29.04;34.92;97391.28;126995;1092;62615;-71
2021/07/25 10:47:46;;;;;;;11.20;7.95;;;;;;;29.00;35.44;97379.50;127026;1092;62779;-70
2021/07/25 10:50:20;;;;;;;10.67;7.90;;;;;;;28.99;33.34;97386.53;127032;1092;62670;-70
2021/07/25 10:55:38;;;;;;;10.47;8.30;;;;;;;28.97;35.14;97374.18;127030;1092;62613;-72
2021/07/25 10:58:06;;;;;;;12.10;8.30;;;;;;;28.97;35.22;97386.34;127014;1092;62621;-71
2021/07/25 11:00:41;;;;;;;10.60;8.33;;;;;;;28.93;34.36;97376.65;127018;1092;62613;-70
2021/07/25 11:03:08;;;;;;;10.80;8.25;;;;;;;28.92;33.96;97390.14;126967;1092;62675;-71
2021/07/25 11:06:07;;;;;;;10.10;8.00;;;;;;;28.83;31.84;97376.40;127026;1092;62584;-71
2021/07/25 11:08:41;;;;;;;10.60;7.65;;;;;;;28.81;32.19;97373.36;127103;1092;62599;-71
2021/07/25 11:11:34;;;;;;;12.90;7.60;;;;;;;28.79;32.39;97370.31;126962;1092;62642;-70
2021/07/25 11:14:02;;;;;;;9.25;7.75;;;;;;;28.69;32.30;97361.55;127074;1092;62716;-70
2021/07/25 11:16:30;;;;;;;10.95;7.75;;;;;;;28.69;33.23;97377.88;127000;1092;62867;-71
2021/07/25 11:19:00;;;;;;;9.50;7.45;;;;;;;28.65;33.31;97363.25;127037;1092;62613;-71
2021/07/25 11:21:31;;;;;;;10.23;7.90;;;;;;;28.67;34.06;97369.14;127186;1092;62613;-72
2021/07/25 11:23:58;;;;;;;14.90;7.97;;;;;;;28.63;33.95;97357.36;127129;1092;62635;-71
2021/07/25 11:26:36;;;;;;;9.83;7.57;;;;;;;28.63;34.20;97363.05;126946;1092;62993;-72
2021/07/25 11:29:06;;;;;;;9.17;7.27;;;;;;;28.62;32.74;97355.84;127098;1092;62651;-72
2021/07/25 11:31:34;;;;;;;;;;;;;;;28.59;33.95;97347.10;127109;1092;62638;-72
2021/07/25 11:34:01;;;;;;;10.50;7.40;;;;;;;28.67;32.95;97357.73;127116;1092;62642;-72